sensor_id;sensor_type;location;lat;lon;timestamp;pressure;altitude;pressure_sealevel;temperature;humidity
40994;BME280;26722;43.212;27.932;2022-12-20T00:00:57;55403.25;;;-146.72;63.29
40994;BME280;26722;43.212;27.932;2022-12-20T00:03:23;55424.34;;;-146.72;62.95
40994;BME280;26722;43.212;27.932;2022-12-20T00:05:48;55420.13;;;-146.72;62.65
40994;BME280;26722;43.212;27.932;2022-12-20T00:08:14;55407.47;;;-146.72;62.72
40994;BME280;26722;43.212;27.932;2022-12-20T00:10:42;55413.78;;;-146.72;63.23
40994;BME280;26722;43.212;27.932;2022-12-20T00:13:08;55428.56;;;-146.72;63.36
40994;BME280;26722;43.212;27.932;2022-12-20T00:15:34;55424.34;;;-146.72;63.36
40994;BME280;26722;43.212;27.932;2022-12-20T00:18:00;55430.69;;;-146.72;63.67
40994;BME280;26722;43.212;27.932;2022-12-20T00:20:26;55424.34;;;-146.72;63.50
40994;BME280;26722;43.212;27.932;2022-12-20T00:22:52;55422.25;;;-146.72;63.68
40994;BME280;26722;43.212;27.932;2022-12-20T00:25:18;55418.00;;;-146.72;63.52
40994;BME280;26722;43.212;27.932;2022-12-20T00:27:47;55424.34;;;-146.72;63.62
40994;BME280;26722;43.212;27.932;2022-12-20T00:30:13;55409.56;;;-146.72;63.32
40994;BME280;26722;43.212;27.932;2022-12-20T00:32:39;55418.00;;;-146.72;63.54
40994;BME280;26722;43.212;27.932;2022-12-20T00:35:05;55437.03;;;-146.72;63.50
40994;BME280;26722;43.212;27.932;2022-12-20T00:37:31;55403.25;;;-146.72;63.26
40994;BME280;26722;43.212;27.932;2022-12-20T00:39:56;55401.13;;;-146.72;63.72
40994;BME280;26722;43.212;27.932;2022-12-20T00:42:22;55424.34;;;-146.72;63.91
40994;BME280;26722;43.212;27.932;2022-12-20T00:44:47;55439.13;;;-146.72;63.65
40994;BME280;26722;43.212;27.932;2022-12-20T00:47:13;55432.78;;;-146.72;63.63
40994;BME280;26722;43.212;27.932;2022-12-20T00:49:39;55409.56;;;-146.72;63.08
40994;BME280;26722;43.212;27.932;2022-12-20T00:52:04;55411.69;;;-146.72;63.34
40994;BME280;26722;43.212;27.932;2022-12-20T00:54:30;55432.78;;;-146.72;63.40
40994;BME280;26722;43.212;27.932;2022-12-20T00:56:55;55422.25;;;-146.72;63.66
40994;BME280;26722;43.212;27.932;2022-12-20T00:59:20;55411.69;;;-146.72;63.96
40994;BME280;26722;43.212;27.932;2022-12-20T01:01:46;55424.34;;;-146.72;63.65
40994;BME280;26722;43.212;27.932;2022-12-20T01:04:12;55394.78;;;-146.72;63.35
40994;BME280;26722;43.212;27.932;2022-12-20T01:06:38;55424.34;;;-146.72;63.42
40994;BME280;26722;43.212;27.932;2022-12-20T01:09:04;55403.25;;;-146.72;63.40
40994;BME280;26722;43.212;27.932;2022-12-20T01:11:35;55399.00;;;-146.72;63.38
40994;BME280;26722;43.212;27.932;2022-12-20T01:14:04;55405.34;;;-146.72;63.70
40994;BME280;26722;43.212;27.932;2022-12-20T01:16:38;55409.56;;;-146.72;64.01
40994;BME280;26722;43.212;27.932;2022-12-20T01:19:05;55388.47;;;-146.72;63.19
40994;BME280;26722;43.212;27.932;2022-12-20T01:21:32;55382.13;;;-146.72;63.08
40994;BME280;26722;43.212;27.932;2022-12-20T01:23:58;55403.25;;;-146.72;62.47
40994;BME280;26722;43.212;27.932;2022-12-20T01:26:26;55386.34;;;-146.72;62.01
40994;BME280;26722;43.212;27.932;2022-12-20T01:28:55;55399.00;;;-146.72;61.96
40994;BME280;26722;43.212;27.932;2022-12-20T01:31:21;55388.47;;;-146.72;62.12
40994;BME280;26722;43.212;27.932;2022-12-20T01:33:48;55380.00;;;-146.72;61.49
40994;BME280;26722;43.212;27.932;2022-12-20T01:36:19;55403.25;;;-146.72;61.48
40994;BME280;26722;43.212;27.932;2022-12-20T01:38:45;55405.34;;;-146.72;61.46
40994;BME280;26722;43.212;27.932;2022-12-20T01:41:16;55384.22;;;-146.72;61.77
40994;BME280;26722;43.212;27.932;2022-12-20T01:43:59;55407.47;;;-146.72;61.83
40994;BME280;26722;43.212;27.932;2022-12-20T01:46:27;55407.47;;;-146.72;61.97
40994;BME280;26722;43.212;27.932;2022-12-20T01:51:46;55411.69;;;-146.72;61.67
40994;BME280;26722;43.212;27.932;2022-12-20T01:54:21;55411.69;;;-146.72;61.78
40994;BME280;26722;43.212;27.932;2022-12-20T01:56:49;55413.78;;;-146.72;62.76
40994;BME280;26722;43.212;27.932;2022-12-20T01:59:18;55415.91;;;-146.72;63.18
40994;BME280;26722;43.212;27.932;2022-12-20T02:01:44;55420.13;;;-146.72;63.67
40994;BME280;26722;43.212;27.932;2022-12-20T02:04:10;55415.91;;;-146.72;63.94
40994;BME280;26722;43.212;27.932;2022-12-20T02:06:35;55420.13;;;-146.72;63.76
40994;BME280;26722;43.212;27.932;2022-12-20T02:09:02;55405.34;;;-146.72;63.89
40994;BME280;26722;43.212;27.932;2022-12-20T02:11:59;55426.47;;;-146.72;63.42
40994;BME280;26722;43.212;27.932;2022-12-20T02:20:32;55418.00;;;-146.72;63.78
40994;BME280;26722;43.212;27.932;2022-12-20T02:28:50;55405.34;;;-146.72;63.12
40994;BME280;26722;43.212;27.932;2022-12-20T02:31:24;55390.56;;;-146.72;62.45
40994;BME280;26722;43.212;27.932;2022-12-20T02:33:53;55403.25;;;-146.72;62.45
40994;BME280;26722;43.212;27.932;2022-12-20T02:36:20;55386.34;;;-146.72;62.76
40994;BME280;26722;43.212;27.932;2022-12-20T02:38:45;55405.34;;;-146.72;62.78
40994;BME280;26722;43.212;27.932;2022-12-20T02:43:48;55358.91;;;-146.72;63.39
40994;BME280;26722;43.212;27.932;2022-12-20T02:46:33;55380.00;;;-146.72;63.45
40994;BME280;26722;43.212;27.932;2022-12-20T02:49:04;55375.78;;;-146.72;63.08
40994;BME280;26722;43.212;27.932;2022-12-20T02:51:33;55396.91;;;-146.72;63.06
40994;BME280;26722;43.212;27.932;2022-12-20T02:53:59;55396.91;;;-146.72;62.70
40994;BME280;26722;43.212;27.932;2022-12-20T02:56:35;55394.78;;;-146.72;61.74
40994;BME280;26722;43.212;27.932;2022-12-20T02:59:07;55361.00;;;-146.72;61.13
40994;BME280;26722;43.212;27.932;2022-12-20T03:01:39;55382.13;;;-146.72;61.43
40994;BME280;26722;43.212;27.932;2022-12-20T03:04:07;55399.00;;;-146.72;61.62
40994;BME280;26722;43.212;27.932;2022-12-20T03:06:32;55382.13;;;-146.72;61.50
40994;BME280;26722;43.212;27.932;2022-12-20T03:08:58;55361.00;;;-146.72;61.63
40994;BME280;26722;43.212;27.932;2022-12-20T03:11:23;55361.00;;;-146.72;60.92
40994;BME280;26722;43.212;27.932;2022-12-20T03:13:49;55377.91;;;-146.72;60.83
40994;BME280;26722;43.212;27.932;2022-12-20T03:16:15;55361.00;;;-146.72;61.05
40994;BME280;26722;43.212;27.932;2022-12-20T03:18:40;55369.44;;;-146.72;61.46
40994;BME280;26722;43.212;27.932;2022-12-20T03:21:06;55396.91;;;-146.72;62.08
40994;BME280;26722;43.212;27.932;2022-12-20T03:23:31;55365.22;;;-146.72;62.41
40994;BME280;26722;43.212;27.932;2022-12-20T03:25:57;55401.13;;;-146.72;62.60
40994;BME280;26722;43.212;27.932;2022-12-20T03:28:22;55394.78;;;-146.72;62.57
40994;BME280;26722;43.212;27.932;2022-12-20T03:30:47;55382.13;;;-146.72;62.62
40994;BME280;26722;43.212;27.932;2022-12-20T03:33:13;55394.78;;;-146.72;62.58
40994;BME280;26722;43.212;27.932;2022-12-20T03:35:39;55403.25;;;-146.72;62.35
40994;BME280;26722;43.212;27.932;2022-12-20T03:38:04;55390.56;;;-146.72;62.63
40994;BME280;26722;43.212;27.932;2022-12-20T03:40:30;55399.00;;;-146.72;62.20
40994;BME280;26722;43.212;27.932;2022-12-20T03:42:55;55396.91;;;-146.72;62.42
40994;BME280;26722;43.212;27.932;2022-12-20T03:45:21;55394.78;;;-146.72;62.49
40994;BME280;26722;43.212;27.932;2022-12-20T03:47:46;55377.91;;;-146.72;62.63
40994;BME280;26722;43.212;27.932;2022-12-20T03:50:11;55396.91;;;-146.72;62.37
40994;BME280;26722;43.212;27.932;2022-12-20T03:52:37;55403.25;;;-146.72;62.41
40994;BME280;26722;43.212;27.932;2022-12-20T03:55:03;55394.78;;;-146.72;62.19
40994;BME280;26722;43.212;27.932;2022-12-20T03:57:29;55407.47;;;-146.72;62.15
40994;BME280;26722;43.212;27.932;2022-12-20T03:59:55;55399.00;;;-146.72;62.36
40994;BME280;26722;43.212;27.932;2022-12-20T04:02:21;55382.13;;;-146.72;62.35
40994;BME280;26722;43.212;27.932;2022-12-20T04:04:47;55382.13;;;-146.72;62.44
40994;BME280;26722;43.212;27.932;2022-12-20T04:07:13;55409.56;;;-146.72;62.54
40994;BME280;26722;43.212;27.932;2022-12-20T04:09:38;55384.22;;;-146.72;62.36
40994;BME280;26722;43.212;27.932;2022-12-20T04:12:04;55380.00;;;-146.72;61.88
40994;BME280;26722;43.212;27.932;2022-12-20T04:14:30;55394.78;;;-146.72;61.97
40994;BME280;26722;43.212;27.932;2022-12-20T04:16:55;55405.34;;;-146.72;62.07
40994;BME280;26722;43.212;27.932;2022-12-20T04:19:21;55394.78;;;-146.72;62.16
40994;BME280;26722;43.212;27.932;2022-12-20T04:21:46;55399.00;;;-146.72;62.80
40994;BME280;26722;43.212;27.932;2022-12-20T04:24:12;55407.47;;;-146.72;63.27
40994;BME280;26722;43.212;27.932;2022-12-20T04:26:37;55420.13;;;-146.72;63.20
40994;BME280;26722;43.212;27.932;2022-12-20T04:29:03;55407.47;;;-146.72;62.95
40994;BME280;26722;43.212;27.932;2022-12-20T04:31:28;55405.34;;;-146.72;63.25
40994;BME280;26722;43.212;27.932;2022-12-20T04:33:54;55420.13;;;-146.72;63.02
40994;BME280;26722;43.212;27.932;2022-12-20T04:36:20;55386.34;;;-146.72;63.08
40994;BME280;26722;43.212;27.932;2022-12-20T04:38:45;55407.47;;;-146.72;62.80
40994;BME280;26722;43.212;27.932;2022-12-20T04:41:11;55403.25;;;-146.72;62.78
40994;BME280;26722;43.212;27.932;2022-12-20T04:43:47;55407.47;;;-146.72;63.02
40994;BME280;26722;43.212;27.932;2022-12-20T04:46:12;55407.47;;;-146.72;62.94
40994;BME280;26722;43.212;27.932;2022-12-20T04:48:38;55399.00;;;-146.72;63.10
40994;BME280;26722;43.212;27.932;2022-12-20T04:51:04;55399.00;;;-146.72;63.01
40994;BME280;26722;43.212;27.932;2022-12-20T04:53:30;55407.47;;;-146.72;62.93
40994;BME280;26722;43.212;27.932;2022-12-20T04:58:39;55403.25;;;-146.72;63.16
40994;BME280;26722;43.212;27.932;2022-12-20T05:01:05;55390.56;;;-146.72;63.27
40994;BME280;26722;43.212;27.932;2022-12-20T05:03:30;55399.00;;;-146.72;63.24
40994;BME280;26722;43.212;27.932;2022-12-20T05:05:56;55394.78;;;-146.72;63.04
40994;BME280;26722;43.212;27.932;2022-12-20T05:08:22;55401.13;;;-146.72;63.26
40994;BME280;26722;43.212;27.932;2022-12-20T05:10:47;55390.56;;;-146.72;63.14
40994;BME280;26722;43.212;27.932;2022-12-20T05:13:13;55426.47;;;-146.72;63.35
40994;BME280;26722;43.212;27.932;2022-12-20T05:15:39;55377.91;;;-146.72;62.85
40994;BME280;26722;43.212;27.932;2022-12-20T05:18:04;55377.91;;;-146.72;62.62
40994;BME280;26722;43.212;27.932;2022-12-20T05:20:30;55386.34;;;-146.72;63.38
40994;BME280;26722;43.212;27.932;2022-12-20T05:22:56;55413.78;;;-146.72;62.44
40994;BME280;26722;43.212;27.932;2022-12-20T05:25:43;55373.69;;;-146.72;61.85
40994;BME280;26722;43.212;27.932;2022-12-20T05:28:28;55375.78;;;-146.72;61.06
40994;BME280;26722;43.212;27.932;2022-12-20T05:30:54;55415.91;;;-146.72;61.57
40994;BME280;26722;43.212;27.932;2022-12-20T05:33:20;55394.78;;;-146.72;61.86
40994;BME280;26722;43.212;27.932;2022-12-20T05:35:46;55388.47;;;-146.72;62.09
40994;BME280;26722;43.212;27.932;2022-12-20T05:38:11;55394.78;;;-146.72;62.21
40994;BME280;26722;43.212;27.932;2022-12-20T05:40:38;55375.78;;;-146.72;62.46
40994;BME280;26722;43.212;27.932;2022-12-20T05:43:04;55371.56;;;-146.72;62.15
40994;BME280;26722;43.212;27.932;2022-12-20T05:45:31;55367.34;;;-146.72;62.46
40994;BME280;26722;43.212;27.932;2022-12-20T05:47:56;55407.47;;;-146.72;62.34
40994;BME280;26722;43.212;27.932;2022-12-20T05:50:22;55388.47;;;-146.72;61.68
40994;BME280;26722;43.212;27.932;2022-12-20T05:52:47;55386.34;;;-146.72;61.71
40994;BME280;26722;43.212;27.932;2022-12-20T05:55:13;55373.69;;;-146.72;61.58
40994;BME280;26722;43.212;27.932;2022-12-20T05:57:38;55373.69;;;-146.72;61.37
40994;BME280;26722;43.212;27.932;2022-12-20T06:00:06;55380.00;;;-146.72;61.50
40994;BME280;26722;43.212;27.932;2022-12-20T06:02:32;55388.47;;;-146.72;61.68
40994;BME280;26722;43.212;27.932;2022-12-20T06:04:57;55390.56;;;-146.72;62.21
40994;BME280;26722;43.212;27.932;2022-12-20T06:07:23;55390.56;;;-146.72;62.45
40994;BME280;26722;43.212;27.932;2022-12-20T06:09:49;55399.00;;;-146.72;62.50
40994;BME280;26722;43.212;27.932;2022-12-20T06:12:14;55396.91;;;-146.72;61.97
40994;BME280;26722;43.212;27.932;2022-12-20T06:14:40;55377.91;;;-146.72;61.89
40994;BME280;26722;43.212;27.932;2022-12-20T06:17:05;55403.25;;;-146.72;61.90
40994;BME280;26722;43.212;27.932;2022-12-20T06:19:31;55394.78;;;-146.72;62.07
40994;BME280;26722;43.212;27.932;2022-12-20T06:21:56;55432.78;;;-146.72;62.24
40994;BME280;26722;43.212;27.932;2022-12-20T06:24:22;55396.91;;;-146.72;62.16
40994;BME280;26722;43.212;27.932;2022-12-20T06:26:50;55377.91;;;-146.72;62.26
40994;BME280;26722;43.212;27.932;2022-12-20T06:29:16;55375.78;;;-146.72;61.35
40994;BME280;26722;43.212;27.932;2022-12-20T06:31:42;55380.00;;;-146.72;61.49
40994;BME280;26722;43.212;27.932;2022-12-20T06:34:08;55377.91;;;-146.72;61.34
40994;BME280;26722;43.212;27.932;2022-12-20T06:36:33;55392.69;;;-146.72;61.55
40994;BME280;26722;43.212;27.932;2022-12-20T06:38:59;55386.34;;;-146.72;61.34
40994;BME280;26722;43.212;27.932;2022-12-20T06:41:25;55386.34;;;-146.72;60.76
40994;BME280;26722;43.212;27.932;2022-12-20T06:43:50;55367.34;;;-146.72;60.64
40994;BME280;26722;43.212;27.932;2022-12-20T06:46:16;55380.00;;;-146.72;60.49
40994;BME280;26722;43.212;27.932;2022-12-20T06:48:41;55380.00;;;-146.72;60.67
40994;BME280;26722;43.212;27.932;2022-12-20T06:51:07;55365.22;;;-146.72;60.55
40994;BME280;26722;43.212;27.932;2022-12-20T06:53:32;55394.78;;;-146.72;59.96
40994;BME280;26722;43.212;27.932;2022-12-20T06:55:58;55356.78;;;-146.72;60.32
40994;BME280;26722;43.212;27.932;2022-12-20T06:58:23;55373.69;;;-146.72;60.32
40994;BME280;26722;43.212;27.932;2022-12-20T07:00:49;55407.47;;;-146.72;59.37
40994;BME280;26722;43.212;27.932;2022-12-20T07:03:14;55358.91;;;-146.72;58.76
40994;BME280;26722;43.212;27.932;2022-12-20T07:05:40;55384.22;;;-146.72;59.21
40994;BME280;26722;43.212;27.932;2022-12-20T07:08:06;55369.44;;;-146.72;59.12
40994;BME280;26722;43.212;27.932;2022-12-20T07:10:36;55352.56;;;-146.72;59.64
40994;BME280;26722;43.212;27.932;2022-12-20T07:13:02;55339.91;;;-146.72;59.46
40994;BME280;26722;43.212;27.932;2022-12-20T07:15:28;55367.34;;;-146.72;59.61
40994;BME280;26722;43.212;27.932;2022-12-20T07:17:53;55358.91;;;-146.72;59.53
40994;BME280;26722;43.212;27.932;2022-12-20T07:20:19;55352.56;;;-146.72;59.69
40994;BME280;26722;43.212;27.932;2022-12-20T07:22:46;55358.91;;;-146.72;59.71
40994;BME280;26722;43.212;27.932;2022-12-20T07:25:12;55339.91;;;-146.72;59.81
40994;BME280;26722;43.212;27.932;2022-12-20T07:27:38;55361.00;;;-146.72;59.66
40994;BME280;26722;43.212;27.932;2022-12-20T07:30:04;55356.78;;;-146.72;59.40
40994;BME280;26722;43.212;27.932;2022-12-20T07:32:30;55339.91;;;-146.72;58.98
40994;BME280;26722;43.212;27.932;2022-12-20T07:34:55;55354.66;;;-146.72;58.35
40994;BME280;26722;43.212;27.932;2022-12-20T07:37:21;55380.00;;;-146.72;58.45
40994;BME280;26722;43.212;27.932;2022-12-20T07:39:46;55361.00;;;-146.72;59.05
40994;BME280;26722;43.212;27.932;2022-12-20T07:42:12;55356.78;;;-146.72;59.65
40994;BME280;26722;43.212;27.932;2022-12-20T07:44:37;55339.91;;;-146.72;59.89
40994;BME280;26722;43.212;27.932;2022-12-20T07:47:02;55352.56;;;-146.72;60.07
40994;BME280;26722;43.212;27.932;2022-12-20T07:49:28;55361.00;;;-146.72;60.40
40994;BME280;26722;43.212;27.932;2022-12-20T07:51:56;55361.00;;;-146.72;60.01
40994;BME280;26722;43.212;27.932;2022-12-20T07:54:30;55344.13;;;-146.72;59.45
40994;BME280;26722;43.212;27.932;2022-12-20T07:57:00;55337.78;;;-146.72;58.58
40994;BME280;26722;43.212;27.932;2022-12-20T07:59:36;55339.91;;;-146.72;58.46
40994;BME280;26722;43.212;27.932;2022-12-20T08:02:04;55306.09;;;-146.72;57.45
40994;BME280;26722;43.212;27.932;2022-12-20T08:04:32;55329.34;;;-146.72;57.53
40994;BME280;26722;43.212;27.932;2022-12-20T08:06:58;55327.22;;;-146.72;57.17
40994;BME280;26722;43.212;27.932;2022-12-20T08:09:28;55323.00;;;-146.72;56.97
40994;BME280;26722;43.212;27.932;2022-12-20T08:11:57;55318.78;;;-146.72;57.14
40994;BME280;26722;43.212;27.932;2022-12-20T08:14:22;55301.88;;;-146.72;57.07
40994;BME280;26722;43.212;27.932;2022-12-20T08:16:48;55314.56;;;-146.72;56.80
40994;BME280;26722;43.212;27.932;2022-12-20T08:19:13;55308.22;;;-146.72;56.18
40994;BME280;26722;43.212;27.932;2022-12-20T08:21:39;55301.88;;;-146.72;55.90
40994;BME280;26722;43.212;27.932;2022-12-20T08:24:04;55299.78;;;-146.72;55.22
40994;BME280;26722;43.212;27.932;2022-12-20T08:26:30;55287.09;;;-146.72;55.06
40994;BME280;26722;43.212;27.932;2022-12-20T08:28:56;55297.66;;;-146.72;54.86
40994;BME280;26722;43.212;27.932;2022-12-20T08:31:21;55301.88;;;-146.72;55.03
40994;BME280;26722;43.212;27.932;2022-12-20T08:33:47;55289.22;;;-146.72;55.38
40994;BME280;26722;43.212;27.932;2022-12-20T08:36:13;55325.13;;;-146.72;55.51
40994;BME280;26722;43.212;27.932;2022-12-20T08:38:39;55314.56;;;-146.72;55.87
40994;BME280;26722;43.212;27.932;2022-12-20T08:41:08;55306.09;;;-146.72;55.95
40994;BME280;26722;43.212;27.932;2022-12-20T08:43:35;55287.09;;;-146.72;55.47
40994;BME280;26722;43.212;27.932;2022-12-20T08:46:01;55280.78;;;-146.72;54.72
40994;BME280;26722;43.212;27.932;2022-12-20T08:48:29;55274.44;;;-146.72;54.48
40994;BME280;26722;43.212;27.932;2022-12-20T08:50:58;55285.00;;;-146.72;54.19
40994;BME280;26722;43.212;27.932;2022-12-20T08:53:27;55289.22;;;-146.72;54.27
40994;BME280;26722;43.212;27.932;2022-12-20T08:56:01;55274.44;;;-146.72;54.56
40994;BME280;26722;43.212;27.932;2022-12-20T08:58:27;55255.44;;;-146.72;54.28
40994;BME280;26722;43.212;27.932;2022-12-20T09:00:52;55276.56;;;-146.72;53.75
40994;BME280;26722;43.212;27.932;2022-12-20T09:03:18;55270.22;;;-146.72;53.38
40994;BME280;26722;43.212;27.932;2022-12-20T09:05:45;55253.31;;;-146.72;52.98
40994;BME280;26722;43.212;27.932;2022-12-20T09:08:11;55247.00;;;-146.72;52.09
40994;BME280;26722;43.212;27.932;2022-12-20T09:10:36;55249.09;;;-146.72;52.40
40994;BME280;26722;43.212;27.932;2022-12-20T09:13:01;55263.88;;;-146.72;52.44
40994;BME280;26722;43.212;27.932;2022-12-20T09:15:27;55255.44;;;-146.72;52.55
40994;BME280;26722;43.212;27.932;2022-12-20T09:17:53;55242.78;;;-146.72;52.34
40994;BME280;26722;43.212;27.932;2022-12-20T09:20:19;55255.44;;;-146.72;51.91
40994;BME280;26722;43.212;27.932;2022-12-20T09:22:45;55234.31;;;-146.72;51.71
40994;BME280;26722;43.212;27.932;2022-12-20T09:25:10;55225.88;;;-146.72;51.21
40994;BME280;26722;43.212;27.932;2022-12-20T09:27:36;55251.22;;;-146.72;50.98
40994;BME280;26722;43.212;27.932;2022-12-20T09:30:02;55238.53;;;-146.72;51.12
40994;BME280;26722;43.212;27.932;2022-12-20T09:32:28;55242.78;;;-146.72;50.82
40994;BME280;26722;43.212;27.932;2022-12-20T09:34:53;55238.53;;;-146.72;50.79
40994;BME280;26722;43.212;27.932;2022-12-20T09:37:19;55249.09;;;-146.72;51.27
40994;BME280;26722;43.212;27.932;2022-12-20T09:39:44;55253.31;;;-146.72;51.76
40994;BME280;26722;43.212;27.932;2022-12-20T09:42:13;55251.22;;;-146.72;51.15
40994;BME280;26722;43.212;27.932;2022-12-20T09:44:39;55221.66;;;-146.72;50.65
40994;BME280;26722;43.212;27.932;2022-12-20T09:47:23;55225.88;;;-146.72;50.38
40994;BME280;26722;43.212;27.932;2022-12-20T09:49:52;55225.88;;;-146.72;49.92
40994;BME280;26722;43.212;27.932;2022-12-20T09:52:50;55225.88;;;-146.72;49.59
40994;BME280;26722;43.212;27.932;2022-12-20T09:55:34;55225.88;;;-146.72;49.29
40994;BME280;26722;43.212;27.932;2022-12-20T10:00:45;55213.22;;;-146.72;48.89
40994;BME280;26722;43.212;27.932;2022-12-20T10:03:18;55236.44;;;-146.72;49.03
40994;BME280;26722;43.212;27.932;2022-12-20T10:05:51;55221.66;;;-146.72;48.95
40994;BME280;26722;43.212;27.932;2022-12-20T10:08:45;55217.44;;;-146.72;49.39
40994;BME280;26722;43.212;27.932;2022-12-20T10:13:56;55221.66;;;-146.72;48.94
40994;BME280;26722;43.212;27.932;2022-12-20T10:16:44;55204.75;;;-146.72;48.58
40994;BME280;26722;43.212;27.932;2022-12-20T10:24:32;55251.22;;;-146.72;49.34
40994;BME280;26722;43.212;27.932;2022-12-20T10:27:15;55230.09;;;-146.72;49.99
40994;BME280;26722;43.212;27.932;2022-12-20T10:29:42;55223.78;;;-146.72;49.84
40994;BME280;26722;43.212;27.932;2022-12-20T10:32:13;55221.66;;;-146.72;49.77
40994;BME280;26722;43.212;27.932;2022-12-20T10:34:53;55225.88;;;-146.72;49.24
40994;BME280;26722;43.212;27.932;2022-12-20T10:37:19;55217.44;;;-146.72;49.21
40994;BME280;26722;43.212;27.932;2022-12-20T10:39:50;55213.22;;;-146.72;49.19
40994;BME280;26722;43.212;27.932;2022-12-20T10:42:25;55234.31;;;-146.72;49.08
40994;BME280;26722;43.212;27.932;2022-12-20T10:44:52;55213.22;;;-146.72;48.58
40994;BME280;26722;43.212;27.932;2022-12-20T10:52:40;55213.22;;;-146.72;48.72
40994;BME280;26722;43.212;27.932;2022-12-20T10:55:37;55228.00;;;-146.72;49.00
40994;BME280;26722;43.212;27.932;2022-12-20T10:58:20;55213.22;;;-146.72;49.25
40994;BME280;26722;43.212;27.932;2022-12-20T11:03:29;55213.22;;;-146.72;49.41
40994;BME280;26722;43.212;27.932;2022-12-20T11:06:01;55221.66;;;-146.72;49.51
40994;BME280;26722;43.212;27.932;2022-12-20T11:08:31;55225.88;;;-146.72;50.52
40994;BME280;26722;43.212;27.932;2022-12-20T11:13:38;55215.31;;;-146.72;50.06
40994;BME280;26722;43.212;27.932;2022-12-20T11:16:05;55200.53;;;-146.72;48.89
40994;BME280;26722;43.212;27.932;2022-12-20T11:21:25;55204.75;;;-146.72;49.91
40994;BME280;26722;43.212;27.932;2022-12-20T11:24:09;55228.00;;;-146.72;49.75
40994;BME280;26722;43.212;27.932;2022-12-20T11:32:36;55255.44;;;-146.72;50.97
40994;BME280;26722;43.212;27.932;2022-12-20T11:37:33;55244.88;;;-146.72;51.28
40994;BME280;26722;43.212;27.932;2022-12-20T11:40:25;55238.53;;;-146.72;51.25
40994;BME280;26722;43.212;27.932;2022-12-20T11:48:48;55225.88;;;-146.72;51.41
40994;BME280;26722;43.212;27.932;2022-12-20T11:54:40;55228.00;;;-146.72;50.88
40994;BME280;26722;43.212;27.932;2022-12-20T11:57:04;55234.31;;;-146.72;51.45
40994;BME280;26722;43.212;27.932;2022-12-20T11:59:36;55238.53;;;-146.72;51.98
40994;BME280;26722;43.212;27.932;2022-12-20T12:04:43;55223.78;;;-146.72;52.32
40994;BME280;26722;43.212;27.932;2022-12-20T12:07:17;55251.22;;;-146.72;52.35
40994;BME280;26722;43.212;27.932;2022-12-20T12:09:47;55225.88;;;-146.72;52.31
40994;BME280;26722;43.212;27.932;2022-12-20T12:15:26;55242.78;;;-146.72;51.99
40994;BME280;26722;43.212;27.932;2022-12-20T12:23:06;55247.00;;;-146.72;53.03
40994;BME280;26722;43.212;27.932;2022-12-20T12:25:36;55242.78;;;-146.72;53.67
40994;BME280;26722;43.212;27.932;2022-12-20T12:28:03;55238.53;;;-146.72;53.11
40994;BME280;26722;43.212;27.932;2022-12-20T12:30:36;55238.53;;;-146.72;53.20
40994;BME280;26722;43.212;27.932;2022-12-20T12:33:11;55259.66;;;-146.72;53.08
40994;BME280;26722;43.212;27.932;2022-12-20T12:46:47;55223.78;;;-146.72;52.49
40994;BME280;26722;43.212;27.932;2022-12-20T12:49:18;55232.22;;;-146.72;52.80
40994;BME280;26722;43.212;27.932;2022-12-20T12:51:52;55236.44;;;-146.72;52.91
40994;BME280;26722;43.212;27.932;2022-12-20T12:57:13;55213.22;;;-146.72;52.67
40994;BME280;26722;43.212;27.932;2022-12-20T12:59:42;55236.44;;;-146.72;52.72
40994;BME280;26722;43.212;27.932;2022-12-20T13:04:53;55242.78;;;-146.72;53.14
40994;BME280;26722;43.212;27.932;2022-12-20T13:09:58;55221.66;;;-146.72;52.98
40994;BME280;26722;43.212;27.932;2022-12-20T13:25:32;55232.22;;;-146.72;53.00
40994;BME280;26722;43.212;27.932;2022-12-20T13:33:50;55238.53;;;-146.72;52.86
40994;BME280;26722;43.212;27.932;2022-12-20T13:49:38;55251.22;;;-146.72;54.21
40994;BME280;26722;43.212;27.932;2022-12-20T13:54:44;55259.66;;;-146.72;54.72
40994;BME280;26722;43.212;27.932;2022-12-20T13:57:15;55247.00;;;-146.72;54.23
40994;BME280;26722;43.212;27.932;2022-12-20T13:59:45;55257.56;;;-146.72;54.66
40994;BME280;26722;43.212;27.932;2022-12-20T14:02:18;55247.00;;;-146.72;54.51
40994;BME280;26722;43.212;27.932;2022-12-20T14:07:47;55263.88;;;-146.72;54.64
40994;BME280;26722;43.212;27.932;2022-12-20T14:10:22;55234.31;;;-146.72;54.17
40994;BME280;26722;43.212;27.932;2022-12-20T14:12:52;55266.00;;;-146.72;54.60
40994;BME280;26722;43.212;27.932;2022-12-20T14:17:52;55251.22;;;-146.72;55.00
40994;BME280;26722;43.212;27.932;2022-12-20T14:20:32;55268.09;;;-146.72;55.09
40994;BME280;26722;43.212;27.932;2022-12-20T14:23:09;55272.31;;;-146.72;55.01
40994;BME280;26722;43.212;27.932;2022-12-20T14:25:55;55253.31;;;-146.72;54.70
40994;BME280;26722;43.212;27.932;2022-12-20T14:28:39;55268.09;;;-146.72;55.25
40994;BME280;26722;43.212;27.932;2022-12-20T14:31:24;55263.88;;;-146.72;55.52
40994;BME280;26722;43.212;27.932;2022-12-20T14:33:52;55268.09;;;-146.72;55.22
40994;BME280;26722;43.212;27.932;2022-12-20T14:36:25;55268.09;;;-146.72;55.46
40994;BME280;26722;43.212;27.932;2022-12-20T14:38:51;55280.78;;;-146.72;55.97
40994;BME280;26722;43.212;27.932;2022-12-20T14:41:37;55276.56;;;-146.72;56.11
40994;BME280;26722;43.212;27.932;2022-12-20T14:44:15;55289.22;;;-146.72;56.43
40994;BME280;26722;43.212;27.932;2022-12-20T14:47:12;55263.88;;;-146.72;56.79
40994;BME280;26722;43.212;27.932;2022-12-20T14:49:39;55285.00;;;-146.72;57.07